sensor_id;sensor_type;location;lat;lon;timestamp;P1;durP1;ratioP1;P2;durP2;ratioP2
75340;SDS011;64091;47.562;18.920;2022-10-26T00:01:25;5.10;;;1.70;;
75340;SDS011;64091;47.562;18.920;2022-10-26T00:03:51;4.20;;;1.90;;
75340;SDS011;64091;47.562;18.920;2022-10-26T00:08:45;4.00;;;1.80;;
75340;SDS011;64091;47.562;18.920;2022-10-26T00:11:12;5.60;;;2.20;;
75340;SDS011;64091;47.562;18.920;2022-10-26T00:13:38;5.10;;;2.20;;
75340;SDS011;64091;47.562;18.920;2022-10-26T00:16:11;5.20;;;1.90;;
75340;SDS011;64091;47.562;18.920;2022-10-26T00:18:38;3.60;;;2.00;;
75340;SDS011;64091;47.562;18.920;2022-10-26T00:21:05;5.70;;;2.20;;
75340;SDS011;64091;47.562;18.920;2022-10-26T00:23:31;4.40;;;1.90;;
75340;SDS011;64091;47.562;18.920;2022-10-26T00:25:57;3.90;;;2.00;;
75340;SDS011;64091;47.562;18.920;2022-10-26T00:28:23;7.60;;;2.20;;
75340;SDS011;64091;47.562;18.920;2022-10-26T00:30:49;3.50;;;2.00;;
75340;SDS011;64091;47.562;18.920;2022-10-26T00:33:14;4.90;;;2.40;;
75340;SDS011;64091;47.562;18.920;2022-10-26T00:35:40;4.70;;;2.00;;
75340;SDS011;64091;47.562;18.920;2022-10-26T00:38:05;3.60;;;1.70;;
75340;SDS011;64091;47.562;18.920;2022-10-26T00:40:30;4.60;;;1.80;;
75340;SDS011;64091;47.562;18.920;2022-10-26T00:42:56;4.60;;;1.70;;
75340;SDS011;64091;47.562;18.920;2022-10-26T00:45:22;4.30;;;1.80;;
75340;SDS011;64091;47.562;18.920;2022-10-26T00:47:56;3.60;;;1.60;;
75340;SDS011;64091;47.562;18.920;2022-10-26T00:50:24;5.10;;;2.00;;
75340;SDS011;64091;47.562;18.920;2022-10-26T00:53:02;4.90;;;1.80;;
75340;SDS011;64091;47.562;18.920;2022-10-26T00:55:30;4.50;;;1.90;;
75340;SDS011;64091;47.562;18.920;2022-10-26T00:57:57;4.30;;;1.60;;
75340;SDS011;64091;47.562;18.920;2022-10-26T01:00:33;4.80;;;2.30;;
75340;SDS011;64091;47.562;18.920;2022-10-26T01:02:59;4.80;;;1.80;;
75340;SDS011;64091;47.562;18.920;2022-10-26T01:05:26;4.00;;;1.60;;
75340;SDS011;64091;47.562;18.920;2022-10-26T01:07:51;5.00;;;1.60;;
75340;SDS011;64091;47.562;18.920;2022-10-26T01:10:18;4.70;;;1.60;;
75340;SDS011;64091;47.562;18.920;2022-10-26T01:12:43;3.70;;;1.50;;
75340;SDS011;64091;47.562;18.920;2022-10-26T01:15:09;3.40;;;1.50;;
75340;SDS011;64091;47.562;18.920;2022-10-26T01:17:39;4.60;;;1.70;;
75340;SDS011;64091;47.562;18.920;2022-10-26T01:23:22;4.60;;;1.60;;
75340;SDS011;64091;47.562;18.920;2022-10-26T01:29:20;5.00;;;1.40;;
75340;SDS011;64091;47.562;18.920;2022-10-26T01:32:05;4.00;;;1.80;;
75340;SDS011;64091;47.562;18.920;2022-10-26T01:34:44;4.60;;;1.80;;
75340;SDS011;64091;47.562;18.920;2022-10-26T01:37:18;3.00;;;1.40;;
75340;SDS011;64091;47.562;18.920;2022-10-26T01:39:53;3.10;;;1.60;;
75340;SDS011;64091;47.562;18.920;2022-10-26T01:42:21;3.10;;;1.40;;
75340;SDS011;64091;47.562;18.920;2022-10-26T01:44:58;3.50;;;1.60;;
75340;SDS011;64091;47.562;18.920;2022-10-26T01:47:25;3.30;;;1.50;;
75340;SDS011;64091;47.562;18.920;2022-10-26T01:49:52;4.20;;;1.40;;
75340;SDS011;64091;47.562;18.920;2022-10-26T01:52:20;3.70;;;1.50;;
75340;SDS011;64091;47.562;18.920;2022-10-26T01:54:45;3.90;;;1.70;;
75340;SDS011;64091;47.562;18.920;2022-10-26T01:57:11;3.30;;;1.50;;
75340;SDS011;64091;47.562;18.920;2022-10-26T02:02:26;3.10;;;1.50;;
75340;SDS011;64091;47.562;18.920;2022-10-26T02:07:39;5.70;;;1.60;;
75340;SDS011;64091;47.562;18.920;2022-10-26T02:13:24;4.20;;;1.40;;
75340;SDS011;64091;47.562;18.920;2022-10-26T02:18:34;3.40;;;1.40;;
75340;SDS011;64091;47.562;18.920;2022-10-26T02:21:08;3.00;;;1.20;;
75340;SDS011;64091;47.562;18.920;2022-10-26T02:23:37;4.30;;;1.40;;
75340;SDS011;64091;47.562;18.920;2022-10-26T02:26:04;3.60;;;1.50;;
75340;SDS011;64091;47.562;18.920;2022-10-26T02:31:01;2.90;;;1.10;;
75340;SDS011;64091;47.562;18.920;2022-10-26T02:33:29;4.00;;;1.40;;
75340;SDS011;64091;47.562;18.920;2022-10-26T02:35:57;2.60;;;1.20;;
75340;SDS011;64091;47.562;18.920;2022-10-26T02:38:24;3.80;;;1.20;;
75340;SDS011;64091;47.562;18.920;2022-10-26T02:40:51;2.50;;;1.10;;
75340;SDS011;64091;47.562;18.920;2022-10-26T02:43:16;3.10;;;1.50;;
75340;SDS011;64091;47.562;18.920;2022-10-26T02:45:48;2.80;;;1.20;;
75340;SDS011;64091;47.562;18.920;2022-10-26T02:48:16;4.40;;;1.30;;
75340;SDS011;64091;47.562;18.920;2022-10-26T02:53:34;3.40;;;1.80;;
75340;SDS011;64091;47.562;18.920;2022-10-26T02:56:20;3.60;;;1.80;;
75340;SDS011;64091;47.562;18.920;2022-10-26T02:58:50;3.90;;;1.90;;
75340;SDS011;64091;47.562;18.920;2022-10-26T03:01:17;3.30;;;1.50;;
75340;SDS011;64091;47.562;18.920;2022-10-26T03:03:43;4.10;;;1.60;;
75340;SDS011;64091;47.562;18.920;2022-10-26T03:06:09;3.30;;;1.50;;
75340;SDS011;64091;47.562;18.920;2022-10-26T03:08:34;5.60;;;1.40;;
75340;SDS011;64091;47.562;18.920;2022-10-26T03:10:59;4.80;;;1.60;;
75340;SDS011;64091;47.562;18.920;2022-10-26T03:13:25;4.00;;;1.70;;
75340;SDS011;64091;47.562;18.920;2022-10-26T03:15:53;4.10;;;1.40;;
75340;SDS011;64091;47.562;18.920;2022-10-26T03:18:20;4.50;;;1.30;;
75340;SDS011;64091;47.562;18.920;2022-10-26T03:20:45;3.70;;;1.40;;
75340;SDS011;64091;47.562;18.920;2022-10-26T03:23:10;2.50;;;1.30;;
75340;SDS011;64091;47.562;18.920;2022-10-26T03:25:36;3.60;;;1.50;;
75340;SDS011;64091;47.562;18.920;2022-10-26T03:28:02;2.90;;;1.30;;
75340;SDS011;64091;47.562;18.920;2022-10-26T03:30:28;2.60;;;1.20;;
75340;SDS011;64091;47.562;18.920;2022-10-26T03:32:55;3.50;;;1.30;;
75340;SDS011;64091;47.562;18.920;2022-10-26T03:35:20;2.50;;;1.00;;
75340;SDS011;64091;47.562;18.920;2022-10-26T03:37:46;3.80;;;1.30;;
75340;SDS011;64091;47.562;18.920;2022-10-26T03:40:12;5.70;;;1.40;;
75340;SDS011;64091;47.562;18.920;2022-10-26T03:42:38;4.40;;;1.40;;
75340;SDS011;64091;47.562;18.920;2022-10-26T03:45:04;4.60;;;1.20;;
75340;SDS011;64091;47.562;18.920;2022-10-26T03:47:30;2.60;;;1.10;;
75340;SDS011;64091;47.562;18.920;2022-10-26T03:49:55;2.60;;;1.20;;
75340;SDS011;64091;47.562;18.920;2022-10-26T03:52:21;4.00;;;1.10;;
75340;SDS011;64091;47.562;18.920;2022-10-26T03:54:48;2.90;;;1.20;;
75340;SDS011;64091;47.562;18.920;2022-10-26T03:57:13;6.20;;;1.90;;
75340;SDS011;64091;47.562;18.920;2022-10-26T03:59:38;3.80;;;1.30;;
75340;SDS011;64091;47.562;18.920;2022-10-26T04:02:05;3.00;;;1.10;;
75340;SDS011;64091;47.562;18.920;2022-10-26T04:04:30;3.20;;;1.30;;
75340;SDS011;64091;47.562;18.920;2022-10-26T04:06:55;2.50;;;1.30;;
75340;SDS011;64091;47.562;18.920;2022-10-26T04:09:21;5.70;;;1.40;;
75340;SDS011;64091;47.562;18.920;2022-10-26T04:11:46;3.00;;;0.90;;
75340;SDS011;64091;47.562;18.920;2022-10-26T04:14:12;3.00;;;1.20;;
75340;SDS011;64091;47.562;18.920;2022-10-26T04:16:37;2.60;;;1.10;;
75340;SDS011;64091;47.562;18.920;2022-10-26T04:19:02;6.30;;;1.30;;
75340;SDS011;64091;47.562;18.920;2022-10-26T04:21:28;3.00;;;1.20;;
75340;SDS011;64091;47.562;18.920;2022-10-26T04:23:53;4.30;;;1.60;;
75340;SDS011;64091;47.562;18.920;2022-10-26T04:26:18;7.40;;;1.30;;
75340;SDS011;64091;47.562;18.920;2022-10-26T04:28:44;2.90;;;1.00;;
75340;SDS011;64091;47.562;18.920;2022-10-26T04:31:09;3.20;;;1.50;;
75340;SDS011;64091;47.562;18.920;2022-10-26T04:33:35;4.70;;;1.40;;
75340;SDS011;64091;47.562;18.920;2022-10-26T04:36:00;2.00;;;1.00;;
75340;SDS011;64091;47.562;18.920;2022-10-26T04:38:26;3.50;;;1.40;;
75340;SDS011;64091;47.562;18.920;2022-10-26T04:40:51;4.10;;;1.30;;
75340;SDS011;64091;47.562;18.920;2022-10-26T04:43:17;3.40;;;1.30;;
75340;SDS011;64091;47.562;18.920;2022-10-26T04:45:42;3.40;;;1.10;;
75340;SDS011;64091;47.562;18.920;2022-10-26T04:48:11;3.20;;;1.30;;
75340;SDS011;64091;47.562;18.920;2022-10-26T04:50:37;5.40;;;1.40;;
75340;SDS011;64091;47.562;18.920;2022-10-26T04:53:04;2.70;;;1.30;;
75340;SDS011;64091;47.562;18.920;2022-10-26T04:55:30;3.60;;;1.30;;
75340;SDS011;64091;47.562;18.920;2022-10-26T04:57:56;2.20;;;1.10;;
75340;SDS011;64091;47.562;18.920;2022-10-26T05:00:22;4.20;;;1.30;;
75340;SDS011;64091;47.562;18.920;2022-10-26T05:02:47;3.30;;;1.50;;
75340;SDS011;64091;47.562;18.920;2022-10-26T05:05:12;3.60;;;1.40;;
75340;SDS011;64091;47.562;18.920;2022-10-26T05:07:38;5.10;;;1.60;;
75340;SDS011;64091;47.562;18.920;2022-10-26T05:10:04;3.80;;;1.90;;
75340;SDS011;64091;47.562;18.920;2022-10-26T05:12:29;4.10;;;2.10;;
75340;SDS011;64091;47.562;18.920;2022-10-26T05:14:55;3.60;;;1.60;;
75340;SDS011;64091;47.562;18.920;2022-10-26T05:17:26;3.50;;;1.90;;
75340;SDS011;64091;47.562;18.920;2022-10-26T05:19:52;5.00;;;2.60;;
75340;SDS011;64091;47.562;18.920;2022-10-26T05:22:23;4.20;;;2.20;;
75340;SDS011;64091;47.562;18.920;2022-10-26T05:24:49;4.90;;;2.20;;
75340;SDS011;64091;47.562;18.920;2022-10-26T05:27:14;3.10;;;1.80;;
75340;SDS011;64091;47.562;18.920;2022-10-26T05:29:40;5.10;;;1.70;;
75340;SDS011;64091;47.562;18.920;2022-10-26T05:32:05;4.00;;;1.50;;
75340;SDS011;64091;47.562;18.920;2022-10-26T05:34:31;2.90;;;1.30;;
75340;SDS011;64091;47.562;18.920;2022-10-26T05:36:56;3.20;;;1.30;;
75340;SDS011;64091;47.562;18.920;2022-10-26T05:39:21;2.40;;;1.30;;
75340;SDS011;64091;47.562;18.920;2022-10-26T05:41:47;4.70;;;1.40;;
75340;SDS011;64091;47.562;18.920;2022-10-26T05:44:12;3.80;;;1.70;;
75340;SDS011;64091;47.562;18.920;2022-10-26T05:46:37;2.90;;;1.40;;
75340;SDS011;64091;47.562;18.920;2022-10-26T05:49:03;3.00;;;1.50;;
75340;SDS011;64091;47.562;18.920;2022-10-26T05:51:28;4.80;;;1.70;;
75340;SDS011;64091;47.562;18.920;2022-10-26T05:53:54;3.20;;;1.50;;
75340;SDS011;64091;47.562;18.920;2022-10-26T05:56:20;3.50;;;1.50;;
75340;SDS011;64091;47.562;18.920;2022-10-26T05:59:03;4.50;;;2.10;;
75340;SDS011;64091;47.562;18.920;2022-10-26T06:07:03;5.80;;;2.20;;
75340;SDS011;64091;47.562;18.920;2022-10-26T06:09:34;3.60;;;1.90;;
75340;SDS011;64091;47.562;18.920;2022-10-26T06:12:00;4.70;;;2.10;;
75340;SDS011;64091;47.562;18.920;2022-10-26T06:14:25;3.90;;;1.80;;
75340;SDS011;64091;47.562;18.920;2022-10-26T06:28:21;4.10;;;1.40;;
75340;SDS011;64091;47.562;18.920;2022-10-26T06:31:09;3.50;;;1.60;;
75340;SDS011;64091;47.562;18.920;2022-10-26T06:33:36;5.00;;;1.90;;
75340;SDS011;64091;47.562;18.920;2022-10-26T06:38:39;5.90;;;1.80;;
75340;SDS011;64091;47.562;18.920;2022-10-26T06:41:07;3.60;;;1.90;;
75340;SDS011;64091;47.562;18.920;2022-10-26T06:43:33;4.20;;;1.70;;
75340;SDS011;64091;47.562;18.920;2022-10-26T06:48:39;6.50;;;1.40;;
75340;SDS011;64091;47.562;18.920;2022-10-26T06:51:13;5.70;;;1.60;;
75340;SDS011;64091;47.562;18.920;2022-10-26T06:56:11;3.40;;;1.30;;
75340;SDS011;64091;47.562;18.920;2022-10-26T06:58:37;3.10;;;1.20;;
75340;SDS011;64091;47.562;18.920;2022-10-26T07:01:03;4.70;;;2.50;;
75340;SDS011;64091;47.562;18.920;2022-10-26T07:03:29;5.30;;;2.10;;
75340;SDS011;64091;47.562;18.920;2022-10-26T07:21:19;5.90;;;2.10;;
75340;SDS011;64091;47.562;18.920;2022-10-26T07:23:44;7.20;;;3.10;;
75340;SDS011;64091;47.562;18.920;2022-10-26T07:26:10;8.30;;;2.60;;
75340;SDS011;64091;47.562;18.920;2022-10-26T07:28:35;4.60;;;1.70;;
75340;SDS011;64091;47.562;18.920;2022-10-26T07:31:01;5.10;;;2.30;;
75340;SDS011;64091;47.562;18.920;2022-10-26T07:33:26;5.40;;;3.30;;
75340;SDS011;64091;47.562;18.920;2022-10-26T07:35:51;4.70;;;1.90;;
75340;SDS011;64091;47.562;18.920;2022-10-26T07:38:18;4.30;;;1.90;;
75340;SDS011;64091;47.562;18.920;2022-10-26T07:40:43;3.80;;;1.80;;
75340;SDS011;64091;47.562;18.920;2022-10-26T07:43:09;5.60;;;2.00;;
75340;SDS011;64091;47.562;18.920;2022-10-26T07:45:34;4.40;;;2.00;;
75340;SDS011;64091;47.562;18.920;2022-10-26T07:48:00;5.00;;;2.30;;
75340;SDS011;64091;47.562;18.920;2022-10-26T07:50:26;8.80;;;2.50;;
75340;SDS011;64091;47.562;18.920;2022-10-26T07:52:52;5.20;;;2.00;;
75340;SDS011;64091;47.562;18.920;2022-10-26T07:55:18;6.20;;;2.40;;
75340;SDS011;64091;47.562;18.920;2022-10-26T07:57:44;5.00;;;2.00;;
75340;SDS011;64091;47.562;18.920;2022-10-26T08:00:09;6.10;;;2.20;;
75340;SDS011;64091;47.562;18.920;2022-10-26T08:02:35;5.50;;;2.10;;
75340;SDS011;64091;47.562;18.920;2022-10-26T08:05:02;5.20;;;2.00;;
75340;SDS011;64091;47.562;18.920;2022-10-26T08:07:28;7.00;;;2.60;;
75340;SDS011;64091;47.562;18.920;2022-10-26T08:09:53;5.70;;;2.30;;
75340;SDS011;64091;47.562;18.920;2022-10-26T08:12:18;4.90;;;2.40;;
75340;SDS011;64091;47.562;18.920;2022-10-26T08:14:44;4.90;;;2.10;;
75340;SDS011;64091;47.562;18.920;2022-10-26T08:17:10;4.80;;;2.20;;
75340;SDS011;64091;47.562;18.920;2022-10-26T08:19:35;4.10;;;2.00;;
75340;SDS011;64091;47.562;18.920;2022-10-26T08:22:01;5.30;;;1.90;;
75340;SDS011;64091;47.562;18.920;2022-10-26T08:24:26;4.10;;;2.30;;
75340;SDS011;64091;47.562;18.920;2022-10-26T08:26:51;5.10;;;1.90;;
75340;SDS011;64091;47.562;18.920;2022-10-26T08:29:17;4.80;;;1.80;;
75340;SDS011;64091;47.562;18.920;2022-10-26T08:31:42;4.20;;;1.90;;
75340;SDS011;64091;47.562;18.920;2022-10-26T08:34:08;3.70;;;1.80;;
75340;SDS011;64091;47.562;18.920;2022-10-26T08:36:33;4.40;;;1.90;;
75340;SDS011;64091;47.562;18.920;2022-10-26T08:38:58;5.00;;;2.00;;
75340;SDS011;64091;47.562;18.920;2022-10-26T08:41:37;5.80;;;2.20;;
75340;SDS011;64091;47.562;18.920;2022-10-26T08:46:49;3.30;;;1.80;;
75340;SDS011;64091;47.562;18.920;2022-10-26T08:49:45;4.70;;;2.20;;
75340;SDS011;64091;47.562;18.920;2022-10-26T08:52:11;4.30;;;2.20;;
75340;SDS011;64091;47.562;18.920;2022-10-26T08:54:44;5.30;;;2.30;;
75340;SDS011;64091;47.562;18.920;2022-10-26T08:57:25;5.00;;;2.40;;
75340;SDS011;64091;47.562;18.920;2022-10-26T08:59:54;4.00;;;2.20;;
75340;SDS011;64091;47.562;18.920;2022-10-26T09:02:20;4.80;;;2.30;;
75340;SDS011;64091;47.562;18.920;2022-10-26T09:04:46;4.90;;;2.40;;
75340;SDS011;64091;47.562;18.920;2022-10-26T09:10:32;6.40;;;2.80;;
75340;SDS011;64091;47.562;18.920;2022-10-26T09:13:21;7.20;;;3.30;;
75340;SDS011;64091;47.562;18.920;2022-10-26T09:18:46;6.30;;;3.40;;
75340;SDS011;64091;47.562;18.920;2022-10-26T09:24:12;6.80;;;3.50;;
75340;SDS011;64091;47.562;18.920;2022-10-26T09:27:08;6.60;;;3.90;;
75340;SDS011;64091;47.562;18.920;2022-10-26T09:29:39;7.50;;;4.10;;
75340;SDS011;64091;47.562;18.920;2022-10-26T09:32:09;7.80;;;4.60;;
75340;SDS011;64091;47.562;18.920;2022-10-26T09:34:41;5.80;;;3.80;;
75340;SDS011;64091;47.562;18.920;2022-10-26T09:37:19;5.90;;;4.00;;
75340;SDS011;64091;47.562;18.920;2022-10-26T09:40:07;7.60;;;4.60;;
75340;SDS011;64091;47.562;18.920;2022-10-26T09:42:53;7.90;;;4.30;;
75340;SDS011;64091;47.562;18.920;2022-10-26T09:45:35;9.30;;;4.60;;
75340;SDS011;64091;47.562;18.920;2022-10-26T09:48:09;7.70;;;4.30;;
75340;SDS011;64091;47.562;18.920;2022-10-26T09:50:38;8.40;;;4.40;;
75340;SDS011;64091;47.562;18.920;2022-10-26T09:53:05;8.70;;;4.50;;
75340;SDS011;64091;47.562;18.920;2022-10-26T09:55:31;8.50;;;3.90;;
75340;SDS011;64091;47.562;18.920;2022-10-26T09:57:59;7.00;;;3.90;;
75340;SDS011;64091;47.562;18.920;2022-10-26T10:00:26;6.60;;;3.80;;
75340;SDS011;64091;47.562;18.920;2022-10-26T10:02:56;6.60;;;3.60;;
75340;SDS011;64091;47.562;18.920;2022-10-26T10:08:17;6.90;;;3.80;;
75340;SDS011;64091;47.562;18.920;2022-10-26T10:10:52;7.30;;;3.90;;
75340;SDS011;64091;47.562;18.920;2022-10-26T10:13:31;8.70;;;4.00;;
75340;SDS011;64091;47.562;18.920;2022-10-26T10:16:05;7.10;;;3.30;;
75340;SDS011;64091;47.562;18.920;2022-10-26T10:18:54;6.10;;;3.00;;
75340;SDS011;64091;47.562;18.920;2022-10-26T10:21:21;6.10;;;3.10;;
75340;SDS011;64091;47.562;18.920;2022-10-26T10:24:25;6.90;;;2.80;;
75340;SDS011;64091;47.562;18.920;2022-10-26T10:27:03;4.10;;;2.30;;
75340;SDS011;64091;47.562;18.920;2022-10-26T10:29:30;9.70;;;2.70;;
75340;SDS011;64091;47.562;18.920;2022-10-26T10:31:58;6.80;;;2.60;;
75340;SDS011;64091;47.562;18.920;2022-10-26T10:36:50;4.80;;;2.40;;
75340;SDS011;64091;47.562;18.920;2022-10-26T10:39:38;4.20;;;2.10;;
75340;SDS011;64091;47.562;18.920;2022-10-26T10:42:10;5.70;;;2.70;;
75340;SDS011;64091;47.562;18.920;2022-10-26T10:44:39;6.80;;;3.20;;
75340;SDS011;64091;47.562;18.920;2022-10-26T10:47:13;9.20;;;4.50;;
75340;SDS011;64091;47.562;18.920;2022-10-26T10:49:43;6.00;;;2.80;;
75340;SDS011;64091;47.562;18.920;2022-10-26T10:52:24;4.40;;;2.70;;
75340;SDS011;64091;47.562;18.920;2022-10-26T10:54:51;5.30;;;3.00;;
75340;SDS011;64091;47.562;18.920;2022-10-26T11:08:11;5.10;;;2.70;;
75340;SDS011;64091;47.562;18.920;2022-10-26T11:11:26;6.50;;;2.70;;
75340;SDS011;64091;47.562;18.920;2022-10-26T11:13:58;4.80;;;2.70;;
75340;SDS011;64091;47.562;18.920;2022-10-26T11:16:29;6.80;;;2.50;;
75340;SDS011;64091;47.562;18.920;2022-10-26T11:19:00;5.00;;;2.60;;
75340;SDS011;64091;47.562;18.920;2022-10-26T11:21:29;5.40;;;2.40;;
75340;SDS011;64091;47.562;18.920;2022-10-26T11:32:02;3.70;;;2.00;;
75340;SDS011;64091;47.562;18.920;2022-10-26T11:34:39;4.20;;;2.50;;
75340;SDS011;64091;47.562;18.920;2022-10-26T11:37:26;5.20;;;2.00;;
75340;SDS011;64091;47.562;18.920;2022-10-26T11:42:45;4.60;;;2.10;;
75340;SDS011;64091;47.562;18.920;2022-10-26T11:48:16;3.60;;;2.00;;
75340;SDS011;64091;47.562;18.920;2022-10-26T11:50:52;4.90;;;1.90;;
75340;SDS011;64091;47.562;18.920;2022-10-26T11:53:20;5.70;;;2.00;;
75340;SDS011;64091;47.562;18.920;2022-10-26T11:55:50;5.30;;;2.20;;
75340;SDS011;64091;47.562;18.920;2022-10-26T11:58:17;6.60;;;2.40;;
75340;SDS011;64091;47.562;18.920;2022-10-26T12:00:49;5.90;;;2.60;;
75340;SDS011;64091;47.562;18.920;2022-10-26T12:03:18;7.80;;;4.60;;
75340;SDS011;64091;47.562;18.920;2022-10-26T12:05:50;11.20;;;6.50;;
75340;SDS011;64091;47.562;18.920;2022-10-26T12:08:23;5.10;;;2.70;;
75340;SDS011;64091;47.562;18.920;2022-10-26T12:19:11;6.00;;;3.00;;
75340;SDS011;64091;47.562;18.920;2022-10-26T12:21:42;5.20;;;2.90;;
75340;SDS011;64091;47.562;18.920;2022-10-26T12:24:30;6.50;;;3.10;;
75340;SDS011;64091;47.562;18.920;2022-10-26T12:27:02;6.10;;;3.00;;
75340;SDS011;64091;47.562;18.920;2022-10-26T12:29:30;6.40;;;3.50;;
75340;SDS011;64091;47.562;18.920;2022-10-26T12:31:56;7.10;;;3.60;;
75340;SDS011;64091;47.562;18.920;2022-10-26T12:34:23;6.10;;;3.60;;
75340;SDS011;64091;47.562;18.920;2022-10-26T12:39:31;6.30;;;3.20;;
75340;SDS011;64091;47.562;18.920;2022-10-26T12:44:31;6.30;;;3.70;;
75340;SDS011;64091;47.562;18.920;2022-10-26T12:46:59;8.60;;;3.80;;
75340;SDS011;64091;47.562;18.920;2022-10-26T12:52:38;6.50;;;4.20;;
75340;SDS011;64091;47.562;18.920;2022-10-26T13:07:23;8.30;;;3.90;;
75340;SDS011;64091;47.562;18.920;2022-10-26T13:10:00;6.10;;;4.10;;
75340;SDS011;64091;47.562;18.920;2022-10-26T13:12:34;6.00;;;4.00;;
75340;SDS011;64091;47.562;18.920;2022-10-26T13:15:02;7.70;;;4.30;;
75340;SDS011;64091;47.562;18.920;2022-10-26T13:17:30;7.40;;;3.90;;
75340;SDS011;64091;47.562;18.920;2022-10-26T13:19:58;9.50;;;4.70;;
75340;SDS011;64091;47.562;18.920;2022-10-26T13:24:51;7.50;;;4.20;;
75340;SDS011;64091;47.562;18.920;2022-10-26T13:30:45;8.10;;;4.00;;
75340;SDS011;64091;47.562;18.920;2022-10-26T13:32:53;8.80;;;5.10;;
75340;SDS011;64091;47.562;18.920;2022-10-26T13:35:20;13.20;;;7.80;;
75340;SDS011;64091;47.562;18.920;2022-10-26T13:37:47;7.30;;;4.60;;
75340;SDS011;64091;47.562;18.920;2022-10-26T13:40:24;7.70;;;5.00;;
75340;SDS011;64091;47.562;18.920;2022-10-26T13:42:57;9.40;;;4.60;;
75340;SDS011;64091;47.562;18.920;2022-10-26T13:45:30;8.10;;;4.30;;
75340;SDS011;64091;47.562;18.920;2022-10-26T13:48:14;9.60;;;4.20;;
75340;SDS011;64091;47.562;18.920;2022-10-26T13:50:46;7.20;;;4.00;;
75340;SDS011;64091;47.562;18.920;2022-10-26T13:53:15;9.60;;;4.30;;
75340;SDS011;64091;47.562;18.920;2022-10-26T13:56:16;9.20;;;4.70;;
75340;SDS011;64091;47.562;18.920;2022-10-26T13:58:56;8.10;;;4.80;;
75340;SDS011;64091;47.562;18.920;2022-10-26T14:01:24;7.30;;;3.90;;
75340;SDS011;64091;47.562;18.920;2022-10-26T14:03:50;7.20;;;4.60;;
75340;SDS011;64091;47.562;18.920;2022-10-26T14:06:35;8.10;;;3.90;;
75340;SDS011;64091;47.562;18.920;2022-10-26T14:09:03;7.00;;;4.30;;
75340;SDS011;64091;47.562;18.920;2022-10-26T14:11:52;7.70;;;4.10;;
75340;SDS011;64091;47.562;18.920;2022-10-26T14:14:27;8.90;;;4.70;;
75340;SDS011;64091;47.562;18.920;2022-10-26T14:16:54;8.80;;;4.10;;
75340;SDS011;64091;47.562;18.920;2022-10-26T14:21:51;10.80;;;5.00;;
75340;SDS011;64091;47.562;18.920;2022-10-26T14:24:19;11.50;;;3.90;;
75340;SDS011;64091;47.562;18.920;2022-10-26T14:26:48;9.10;;;4.20;;
75340;SDS011;64091;47.562;18.920;2022-10-26T14:29:15;6.30;;;4.00;;
75340;SDS011;64091;47.562;18.920;2022-10-26T14:31:42;5.60;;;3.70;;
75340;SDS011;64091;47.562;18.920;2022-10-26T14:34:09;8.00;;;4.20;;
75340;SDS011;64091;47.562;18.920;2022-10-26T14:39:18;5.10;;;2.90;;
75340;SDS011;64091;47.562;18.920;2022-10-26T14:41:48;6.00;;;3.90;;
75340;SDS011;64091;47.562;18.920;2022-10-26T14:44:18;6.50;;;3.50;;
75340;SDS011;64091;47.562;18.920;2022-10-26T14:46:45;6.90;;;3.80;;
75340;SDS011;64091;47.562;18.920;2022-10-26T14:49:21;8.40;;;4.00;;
75340;SDS011;64091;47.562;18.920;2022-10-26T14:51:48;8.00;;;4.30;;
75340;SDS011;64091;47.562;18.920;2022-10-26T14:54:23;7.00;;;3.90;;
75340;SDS011;64091;47.562;18.920;2022-10-26T14:56:50;7.10;;;3.60;;
75340;SDS011;64091;47.562;18.920;2022-10-26T15:04:29;7.10;;;3.70;;
75340;SDS011;64091;47.562;18.920;2022-10-26T15:07:00;6.50;;;3.70;;
75340;SDS011;64091;47.562;18.920;2022-10-26T15:09:43;5.90;;;3.20;;
75340;SDS011;64091;47.562;18.920;2022-10-26T15:14:44;7.10;;;3.60;;
75340;SDS011;64091;47.562;18.920;2022-10-26T15:17:20;6.50;;;3.40;;
75340;SDS011;64091;47.562;18.920;2022-10-26T15:19:47;5.60;;;3.60;;
75340;SDS011;64091;47.562;18.920;2022-10-26T15:22:21;6.10;;;3.60;;
75340;SDS011;64091;47.562;18.920;2022-10-26T15:24:49;6.50;;;3.30;;
75340;SDS011;64091;47.562;18.920;2022-10-26T15:27:17;6.10;;;3.60;;
75340;SDS011;64091;47.562;18.920;2022-10-26T15:29:48;7.90;;;3.60;;
75340;SDS011;64091;47.562;18.920;2022-10-26T15:32:18;7.10;;;3.50;;
75340;SDS011;64091;47.562;18.920;2022-10-26T15:34:47;8.40;;;3.80;;
75340;SDS011;64091;47.562;18.920;2022-10-26T15:37:33;7.00;;;3.70;;
75340;SDS011;64091;47.562;18.920;2022-10-26T15:39:58;6.40;;;3.80;;
75340;SDS011;64091;47.562;18.920;2022-10-26T15:42:24;8.10;;;3.70;;
75340;SDS011;64091;47.562;18.920;2022-10-26T15:44:50;7.50;;;3.60;;
75340;SDS011;64091;47.562;18.920;2022-10-26T15:47:17;6.70;;;4.00;;
75340;SDS011;64091;47.562;18.920;2022-10-26T15:49:44;7.80;;;4.30;;
75340;SDS011;64091;47.562;18.920;2022-10-26T15:52:10;7.80;;;4.30;;
75340;SDS011;64091;47.562;18.920;2022-10-26T15:54:35;7.70;;;4.20;;
75340;SDS011;64091;47.562;18.920;2022-10-26T15:57:01;5.60;;;3.90;;
75340;SDS011;64091;47.562;18.920;2022-10-26T15:59:26;7.20;;;4.10;;
75340;SDS011;64091;47.562;18.920;2022-10-26T16:01:51;7.30;;;3.90;;
75340;SDS011;64091;47.562;18.920;2022-10-26T16:04:17;10.60;;;5.70;;
75340;SDS011;64091;47.562;18.920;2022-10-26T16:06:42;6.40;;;3.40;;
75340;SDS011;64091;47.562;18.920;2022-10-26T16:09:11;7.90;;;4.20;;
75340;SDS011;64091;47.562;18.920;2022-10-26T16:11:39;6.30;;;3.60;;
75340;SDS011;64091;47.562;18.920;2022-10-26T16:14:05;7.40;;;4.00;;
75340;SDS011;64091;47.562;18.920;2022-10-26T16:16:31;7.00;;;3.60;;
75340;SDS011;64091;47.562;18.920;2022-10-26T16:18:56;6.10;;;3.90;;
75340;SDS011;64091;47.562;18.920;2022-10-26T16:21:22;6.50;;;4.00;;
75340;SDS011;64091;47.562;18.920;2022-10-26T16:23:49;7.70;;;3.90;;
75340;SDS011;64091;47.562;18.920;2022-10-26T16:26:16;5.00;;;2.90;;
75340;SDS011;64091;47.562;18.920;2022-10-26T16:28:42;6.00;;;3.70;;
75340;SDS011;64091;47.562;18.920;2022-10-26T16:31:11;6.00;;;3.40;;
75340;SDS011;64091;47.562;18.920;2022-10-26T16:33:39;6.20;;;2.90;;
75340;SDS011;64091;47.562;18.920;2022-10-26T16:36:04;5.00;;;2.70;;
75340;SDS011;64091;47.562;18.920;2022-10-26T16:38:41;5.40;;;3.20;;
75340;SDS011;64091;47.562;18.920;2022-10-26T16:43:33;7.10;;;2.70;;
75340;SDS011;64091;47.562;18.920;2022-10-26T16:46:04;5.60;;;2.40;;
75340;SDS011;64091;47.562;18.920;2022-10-26T16:48:40;6.00;;;2.90;;
75340;SDS011;64091;47.562;18.920;2022-10-26T16:51:07;7.00;;;3.30;;
75340;SDS011;64091;47.562;18.920;2022-10-26T16:53:34;6.40;;;3.20;;
75340;SDS011;64091;47.562;18.920;2022-10-26T16:56:03;7.20;;;3.10;;
75340;SDS011;64091;47.562;18.920;2022-10-26T16:58:30;5.60;;;3.10;;
75340;SDS011;64091;47.562;18.920;2022-10-26T17:00:55;4.80;;;2.50;;
75340;SDS011;64091;47.562;18.920;2022-10-26T17:03:21;5.50;;;2.60;;
75340;SDS011;64091;47.562;18.920;2022-10-26T17:05:46;7.20;;;4.10;;
75340;SDS011;64091;47.562;18.920;2022-10-26T17:08:11;6.50;;;2.90;;
75340;SDS011;64091;47.562;18.920;2022-10-26T17:10:37;8.50;;;3.20;;
75340;SDS011;64091;47.562;18.920;2022-10-26T17:13:05;6.70;;;3.30;;
75340;SDS011;64091;47.562;18.920;2022-10-26T17:15:31;5.80;;;2.70;;
75340;SDS011;64091;47.562;18.920;2022-10-26T17:17:56;5.90;;;3.10;;
75340;SDS011;64091;47.562;18.920;2022-10-26T17:20:22;7.30;;;5.10;;
75340;SDS011;64091;47.562;18.920;2022-10-26T17:22:47;11.60;;;7.80;;